Kezdőlap
METAR-TAF:

METAR-TAF

Repülőterek :

Kulusuk, Grönland

földrajzi szélesség: 65-35N, földrajzi hosszúság: 037-09W, magasság: 35 m

Jelenlegi meteorológiai megfigyelések

A jelentés 44 perccel ezelõtt készült, 13:50 UTC
Keleti szél 27 kt
Hőmérséklet -1°C
Páratartalom 93%
Légköri nyomás 970 hPa
Látótávolság: 1000 m

METAR: BGKK 191350Z AUTO 10027KT 1000NDV SN VV008/// M01/M02 Q0970 REFZRA

Idő: 11:34 (14:34 UTC)

Előrejelzés

A jelentés 18 perccel ezelõtt készült, 14:16 UTC
Az előrejelzés 18-én 15 óra UTC és 18-én 20 óra UTC között érvényes
Keleti szél 15 kt
Látótávolság 10 km, vagy több
Szórványos felhőzet 2000 lábon
Borult 3500 lábon
18-én 15 óra UTC és 18-én 20 óra UTC között ideiglenes
Északkeleti szél 25 kt széllökések: 35 kt
Látótávolság: 0800 m
Szakadozott felhőzet 600 lábon
hófúvás, hó

TAF: BGKK 181416Z 1815/1820 08015KT 9999 SCT020 OVC035 TEMPO 1815/1820 05025G35KT 0800 BLSN SN BKN006

Meteorológiai megfigyelések és előrejelzések több, mint 4000 repülőtéren (METAR és TAF jelentéseket).

A térképen piros és sárga pontok jelzik az elérhető meteorológiai állomásokat.

Mozgassa az egeret a pont fölött, hogy megjelenjen az állomás neve.

Azután kattintson az időjárási megfigyelések és előrejelzések megtekintéséhez.

A térkép megváltoztatása: kattintson a fekete keresztel jelölt zöld gombra ráközelítéshez, a vonallal jelölt zöld gombra távolításhoz, vagy a zöld nyilakra a szomszédos térképek eléréséhez.


METAR-TAF: